sensor_id;sensor_type;location;lat;lon;timestamp;P1;durP1;ratioP1;P2;durP2;ratioP2
56893;SDS011;43392;50.078;13.704;2024-02-16T00:01:55;33.42;;;21.60;;
56893;SDS011;43392;50.078;13.704;2024-02-16T00:04:22;40.80;;;23.70;;
56893;SDS011;43392;50.078;13.704;2024-02-16T00:06:48;34.75;;;21.75;;
56893;SDS011;43392;50.078;13.704;2024-02-16T00:09:15;36.15;;;21.98;;
56893;SDS011;43392;50.078;13.704;2024-02-16T00:11:43;39.10;;;23.10;;
56893;SDS011;43392;50.078;13.704;2024-02-16T00:14:12;34.13;;;20.43;;
56893;SDS011;43392;50.078;13.704;2024-02-16T00:16:39;32.10;;;19.55;;
56893;SDS011;43392;50.078;13.704;2024-02-16T00:19:05;28.08;;;17.90;;
56893;SDS011;43392;50.078;13.704;2024-02-16T00:21:32;27.92;;;17.15;;
56893;SDS011;43392;50.078;13.704;2024-02-16T00:23:58;27.58;;;17.00;;
56893;SDS011;43392;50.078;13.704;2024-02-16T00:26:27;33.30;;;17.88;;
56893;SDS011;43392;50.078;13.704;2024-02-16T00:28:55;28.50;;;16.20;;
56893;SDS011;43392;50.078;13.704;2024-02-16T00:31:22;28.95;;;18.27;;
56893;SDS011;43392;50.078;13.704;2024-02-16T00:33:49;31.67;;;19.00;;
56893;SDS011;43392;50.078;13.704;2024-02-16T00:36:16;29.92;;;18.27;;
56893;SDS011;43392;50.078;13.704;2024-02-16T00:38:42;32.75;;;18.15;;
56893;SDS011;43392;50.078;13.704;2024-02-16T00:41:16;31.55;;;19.20;;
56893;SDS011;43392;50.078;13.704;2024-02-16T00:43:43;34.42;;;20.13;;
56893;SDS011;43392;50.078;13.704;2024-02-16T00:46:12;35.42;;;20.88;;
56893;SDS011;43392;50.078;13.704;2024-02-16T00:48:38;37.55;;;20.05;;
56893;SDS011;43392;50.078;13.704;2024-02-16T00:51:05;57.33;;;23.58;;
56893;SDS011;43392;50.078;13.704;2024-02-16T00:53:31;75.22;;;26.52;;
56893;SDS011;43392;50.078;13.704;2024-02-16T00:55:58;40.88;;;21.80;;
56893;SDS011;43392;50.078;13.704;2024-02-16T00:58:25;47.15;;;22.92;;
56893;SDS011;43392;50.078;13.704;2024-02-16T01:00:51;67.45;;;28.17;;
56893;SDS011;43392;50.078;13.704;2024-02-16T01:03:19;57.78;;;27.50;;
56893;SDS011;43392;50.078;13.704;2024-02-16T01:05:47;80.82;;;29.50;;
56893;SDS011;43392;50.078;13.704;2024-02-16T01:08:14;66.28;;;27.95;;
56893;SDS011;43392;50.078;13.704;2024-02-16T01:10:40;53.50;;;27.40;;
56893;SDS011;43392;50.078;13.704;2024-02-16T01:13:07;45.88;;;25.48;;
56893;SDS011;43392;50.078;13.704;2024-02-16T01:15:35;61.85;;;27.33;;
56893;SDS011;43392;50.078;13.704;2024-02-16T01:18:02;78.35;;;27.95;;
56893;SDS011;43392;50.078;13.704;2024-02-16T01:20:30;160.68;;;29.85;;
56893;SDS011;43392;50.078;13.704;2024-02-16T01:22:56;60.45;;;25.25;;
56893;SDS011;43392;50.078;13.704;2024-02-16T01:25:23;59.35;;;23.83;;
56893;SDS011;43392;50.078;13.704;2024-02-16T01:27:50;40.53;;;22.50;;
56893;SDS011;43392;50.078;13.704;2024-02-16T01:30:16;39.13;;;20.90;;
56893;SDS011;43392;50.078;13.704;2024-02-16T01:32:45;51.70;;;23.40;;
56893;SDS011;43392;50.078;13.704;2024-02-16T01:35:11;57.20;;;22.52;;
56893;SDS011;43392;50.078;13.704;2024-02-16T01:37:41;59.33;;;21.85;;
56893;SDS011;43392;50.078;13.704;2024-02-16T01:40:08;78.57;;;23.17;;
56893;SDS011;43392;50.078;13.704;2024-02-16T01:42:39;86.28;;;19.65;;
56893;SDS011;43392;50.078;13.704;2024-02-16T01:45:06;47.85;;;21.60;;
56893;SDS011;43392;50.078;13.704;2024-02-16T01:47:33;50.88;;;24.05;;
56893;SDS011;43392;50.078;13.704;2024-02-16T01:50:01;64.68;;;24.23;;
56893;SDS011;43392;50.078;13.704;2024-02-16T01:52:28;69.53;;;24.48;;
56893;SDS011;43392;50.078;13.704;2024-02-16T01:54:57;64.03;;;21.85;;
56893;SDS011;43392;50.078;13.704;2024-02-16T01:57:24;35.42;;;20.45;;
56893;SDS011;43392;50.078;13.704;2024-02-16T01:59:51;46.92;;;19.92;;
56893;SDS011;43392;50.078;13.704;2024-02-16T02:02:18;60.35;;;19.48;;
56893;SDS011;43392;50.078;13.704;2024-02-16T02:04:45;89.15;;;21.92;;
56893;SDS011;43392;50.078;13.704;2024-02-16T02:07:12;90.72;;;20.92;;
56893;SDS011;43392;50.078;13.704;2024-02-16T02:09:39;43.55;;;19.73;;
56893;SDS011;43392;50.078;13.704;2024-02-16T02:12:07;109.32;;;24.33;;
56893;SDS011;43392;50.078;13.704;2024-02-16T02:14:34;137.65;;;23.42;;
56893;SDS011;43392;50.078;13.704;2024-02-16T02:17:01;161.80;;;24.90;;
56893;SDS011;43392;50.078;13.704;2024-02-16T02:19:28;61.13;;;23.23;;
56893;SDS011;43392;50.078;13.704;2024-02-16T02:21:56;74.53;;;24.88;;
56893;SDS011;43392;50.078;13.704;2024-02-16T02:24:24;69.13;;;15.77;;
56893;SDS011;43392;50.078;13.704;2024-02-16T02:26:50;199.95;;;17.83;;
56893;SDS011;43392;50.078;13.704;2024-02-16T02:29:17;210.40;;;18.40;;
56893;SDS011;43392;50.078;13.704;2024-02-16T02:31:43;90.28;;;14.45;;
56893;SDS011;43392;50.078;13.704;2024-02-16T02:34:10;84.35;;;13.55;;
56893;SDS011;43392;50.078;13.704;2024-02-16T02:36:36;107.68;;;14.25;;
56893;SDS011;43392;50.078;13.704;2024-02-16T02:39:03;51.53;;;12.35;;
56893;SDS011;43392;50.078;13.704;2024-02-16T02:41:32;105.00;;;14.18;;
56893;SDS011;43392;50.078;13.704;2024-02-16T02:43:59;123.85;;;14.60;;
56893;SDS011;43392;50.078;13.704;2024-02-16T02:46:25;55.70;;;11.95;;
56893;SDS011;43392;50.078;13.704;2024-02-16T02:48:53;63.55;;;11.10;;
56893;SDS011;43392;50.078;13.704;2024-02-16T02:51:19;35.38;;;10.63;;
56893;SDS011;43392;50.078;13.704;2024-02-16T02:53:46;18.77;;;9.98;;
56893;SDS011;43392;50.078;13.704;2024-02-16T02:56:12;36.55;;;11.32;;
56893;SDS011;43392;50.078;13.704;2024-02-16T02:58:40;25.38;;;10.20;;
56893;SDS011;43392;50.078;13.704;2024-02-16T03:01:07;39.20;;;12.40;;
56893;SDS011;43392;50.078;13.704;2024-02-16T03:03:34;70.63;;;14.73;;
56893;SDS011;43392;50.078;13.704;2024-02-16T03:06:00;162.18;;;17.90;;
56893;SDS011;43392;50.078;13.704;2024-02-16T03:08:28;224.57;;;19.27;;
56893;SDS011;43392;50.078;13.704;2024-02-16T03:10:55;65.82;;;13.00;;
56893;SDS011;43392;50.078;13.704;2024-02-16T03:13:21;82.97;;;14.32;;
56893;SDS011;43392;50.078;13.704;2024-02-16T03:15:49;151.68;;;15.20;;
56893;SDS011;43392;50.078;13.704;2024-02-16T03:18:16;161.25;;;14.52;;
56893;SDS011;43392;50.078;13.704;2024-02-16T03:20:43;146.45;;;14.02;;
56893;SDS011;43392;50.078;13.704;2024-02-16T03:23:11;80.07;;;12.43;;
56893;SDS011;43392;50.078;13.704;2024-02-16T03:25:37;92.80;;;11.15;;
56893;SDS011;43392;50.078;13.704;2024-02-16T03:28:04;80.18;;;10.18;;
56893;SDS011;43392;50.078;13.704;2024-02-16T03:30:31;72.18;;;9.73;;
56893;SDS011;43392;50.078;13.704;2024-02-16T03:33:00;109.35;;;11.20;;
56893;SDS011;43392;50.078;13.704;2024-02-16T03:35:26;191.55;;;14.13;;
56893;SDS011;43392;50.078;13.704;2024-02-16T03:37:53;165.45;;;13.85;;
56893;SDS011;43392;50.078;13.704;2024-02-16T03:40:20;188.43;;;14.85;;
56893;SDS011;43392;50.078;13.704;2024-02-16T03:42:49;189.27;;;14.70;;
56893;SDS011;43392;50.078;13.704;2024-02-16T03:45:16;168.60;;;14.32;;
56893;SDS011;43392;50.078;13.704;2024-02-16T03:47:42;78.68;;;11.80;;
56893;SDS011;43392;50.078;13.704;2024-02-16T03:50:10;116.90;;;12.90;;
56893;SDS011;43392;50.078;13.704;2024-02-16T03:52:39;55.95;;;10.48;;
56893;SDS011;43392;50.078;13.704;2024-02-16T03:55:06;223.43;;;16.75;;
56893;SDS011;43392;50.078;13.704;2024-02-16T03:57:34;205.57;;;15.68;;
56893;SDS011;43392;50.078;13.704;2024-02-16T04:00:00;176.40;;;15.45;;
56893;SDS011;43392;50.078;13.704;2024-02-16T04:02:27;157.65;;;13.95;;
56893;SDS011;43392;50.078;13.704;2024-02-16T04:04:54;152.23;;;14.48;;
56893;SDS011;43392;50.078;13.704;2024-02-16T04:07:21;115.43;;;12.88;;
56893;SDS011;43392;50.078;13.704;2024-02-16T04:09:48;93.13;;;12.15;;
56893;SDS011;43392;50.078;13.704;2024-02-16T04:12:15;62.28;;;10.27;;
56893;SDS011;43392;50.078;13.704;2024-02-16T04:14:42;83.43;;;11.57;;
56893;SDS011;43392;50.078;13.704;2024-02-16T04:17:09;79.50;;;11.93;;
56893;SDS011;43392;50.078;13.704;2024-02-16T04:19:36;256.40;;;18.30;;
56893;SDS011;43392;50.078;13.704;2024-02-16T04:22:02;183.88;;;14.93;;
56893;SDS011;43392;50.078;13.704;2024-02-16T04:24:31;220.10;;;15.93;;
56893;SDS011;43392;50.078;13.704;2024-02-16T04:26:58;222.35;;;15.40;;
56893;SDS011;43392;50.078;13.704;2024-02-16T04:29:24;314.30;;;18.02;;
56893;SDS011;43392;50.078;13.704;2024-02-16T04:31:51;125.07;;;13.23;;
56893;SDS011;43392;50.078;13.704;2024-02-16T04:34:17;206.02;;;15.98;;
56893;SDS011;43392;50.078;13.704;2024-02-16T04:36:44;133.48;;;13.38;;
56893;SDS011;43392;50.078;13.704;2024-02-16T04:39:10;114.20;;;12.90;;
56893;SDS011;43392;50.078;13.704;2024-02-16T04:41:38;202.20;;;16.17;;
56893;SDS011;43392;50.078;13.704;2024-02-16T04:44:05;118.68;;;13.45;;
56893;SDS011;43392;50.078;13.704;2024-02-16T04:46:31;108.45;;;12.60;;
56893;SDS011;43392;50.078;13.704;2024-02-16T04:48:58;183.23;;;16.55;;
56893;SDS011;43392;50.078;13.704;2024-02-16T04:51:24;340.65;;;21.38;;
56893;SDS011;43392;50.078;13.704;2024-02-16T04:53:51;369.08;;;22.58;;
56893;SDS011;43392;50.078;13.704;2024-02-16T04:56:18;124.50;;;14.40;;
56893;SDS011;43392;50.078;13.704;2024-02-16T04:58:46;115.05;;;14.00;;
56893;SDS011;43392;50.078;13.704;2024-02-16T05:01:13;125.95;;;15.18;;
56893;SDS011;43392;50.078;13.704;2024-02-16T05:03:39;84.25;;;11.68;;
56893;SDS011;43392;50.078;13.704;2024-02-16T05:06:06;117.78;;;14.45;;
56893;SDS011;43392;50.078;13.704;2024-02-16T05:08:33;107.00;;;14.10;;
56893;SDS011;43392;50.078;13.704;2024-02-16T05:10:59;110.95;;;14.38;;
56893;SDS011;43392;50.078;13.704;2024-02-16T05:13:26;177.07;;;15.55;;
56893;SDS011;43392;50.078;13.704;2024-02-16T05:15:54;359.00;;;22.65;;
56893;SDS011;43392;50.078;13.704;2024-02-16T05:18:21;191.05;;;17.45;;
56893;SDS011;43392;50.078;13.704;2024-02-16T05:20:48;164.65;;;16.60;;
56893;SDS011;43392;50.078;13.704;2024-02-16T05:23:14;186.35;;;16.38;;
56893;SDS011;43392;50.078;13.704;2024-02-16T05:25:41;227.32;;;19.20;;
56893;SDS011;43392;50.078;13.704;2024-02-16T05:28:07;237.95;;;19.35;;
56893;SDS011;43392;50.078;13.704;2024-02-16T05:30:34;193.60;;;18.27;;
56893;SDS011;43392;50.078;13.704;2024-02-16T05:33:02;146.43;;;16.02;;
56893;SDS011;43392;50.078;13.704;2024-02-16T05:35:29;147.55;;;15.77;;
56893;SDS011;43392;50.078;13.704;2024-02-16T05:37:59;197.23;;;18.00;;
56893;SDS011;43392;50.078;13.704;2024-02-16T05:40:32;197.00;;;20.33;;
56893;SDS011;43392;50.078;13.704;2024-02-16T05:43:10;127.43;;;15.25;;
56893;SDS011;43392;50.078;13.704;2024-02-16T05:45:37;193.52;;;18.58;;
56893;SDS011;43392;50.078;13.704;2024-02-16T05:48:07;152.77;;;15.70;;
56893;SDS011;43392;50.078;13.704;2024-02-16T05:50:35;123.25;;;14.23;;
56893;SDS011;43392;50.078;13.704;2024-02-16T05:53:02;128.30;;;13.70;;
56893;SDS011;43392;50.078;13.704;2024-02-16T05:55:28;85.07;;;11.80;;
56893;SDS011;43392;50.078;13.704;2024-02-16T05:57:55;108.50;;;13.20;;
56893;SDS011;43392;50.078;13.704;2024-02-16T06:00:21;63.88;;;11.20;;
56893;SDS011;43392;50.078;13.704;2024-02-16T06:02:48;66.68;;;11.35;;
56893;SDS011;43392;50.078;13.704;2024-02-16T06:05:16;84.45;;;12.02;;
56893;SDS011;43392;50.078;13.704;2024-02-16T06:07:45;66.95;;;10.93;;
56893;SDS011;43392;50.078;13.704;2024-02-16T06:10:11;173.13;;;14.85;;
56893;SDS011;43392;50.078;13.704;2024-02-16T06:12:38;182.75;;;15.25;;
56893;SDS011;43392;50.078;13.704;2024-02-16T06:15:05;161.75;;;14.43;;
56893;SDS011;43392;50.078;13.704;2024-02-16T06:17:32;198.25;;;17.42;;
56893;SDS011;43392;50.078;13.704;2024-02-16T06:19:59;153.20;;;14.63;;
56893;SDS011;43392;50.078;13.704;2024-02-16T06:22:27;141.07;;;15.20;;
56893;SDS011;43392;50.078;13.704;2024-02-16T06:24:55;185.07;;;16.90;;
56893;SDS011;43392;50.078;13.704;2024-02-16T06:27:22;102.47;;;13.48;;
56893;SDS011;43392;50.078;13.704;2024-02-16T06:29:49;114.70;;;13.85;;
56893;SDS011;43392;50.078;13.704;2024-02-16T06:32:16;50.55;;;12.20;;
56893;SDS011;43392;50.078;13.704;2024-02-16T06:34:43;81.13;;;12.25;;
56893;SDS011;43392;50.078;13.704;2024-02-16T06:37:10;51.30;;;11.23;;
56893;SDS011;43392;50.078;13.704;2024-02-16T06:39:38;32.83;;;10.90;;
56893;SDS011;43392;50.078;13.704;2024-02-16T06:42:05;61.88;;;10.63;;
56893;SDS011;43392;50.078;13.704;2024-02-16T06:44:32;111.57;;;13.27;;
56893;SDS011;43392;50.078;13.704;2024-02-16T06:46:58;76.93;;;10.77;;
56893;SDS011;43392;50.078;13.704;2024-02-16T06:49:25;100.13;;;12.38;;
56893;SDS011;43392;50.078;13.704;2024-02-16T06:51:51;73.45;;;10.35;;
56893;SDS011;43392;50.078;13.704;2024-02-16T06:54:18;76.78;;;12.27;;
56893;SDS011;43392;50.078;13.704;2024-02-16T06:56:46;186.13;;;19.58;;
56893;SDS011;43392;50.078;13.704;2024-02-16T06:59:13;169.43;;;13.45;;
56893;SDS011;43392;50.078;13.704;2024-02-16T07:01:39;141.75;;;14.63;;
56893;SDS011;43392;50.078;13.704;2024-02-16T07:04:06;135.23;;;12.48;;
56893;SDS011;43392;50.078;13.704;2024-02-16T07:06:32;174.38;;;14.10;;
56893;SDS011;43392;50.078;13.704;2024-02-16T07:08:59;45.35;;;9.07;;
56893;SDS011;43392;50.078;13.704;2024-02-16T07:11:26;31.33;;;8.82;;
56893;SDS011;43392;50.078;13.704;2024-02-16T07:13:54;119.63;;;11.75;;
56893;SDS011;43392;50.078;13.704;2024-02-16T07:16:20;24.13;;;8.18;;
56893;SDS011;43392;50.078;13.704;2024-02-16T07:18:47;60.50;;;8.43;;
56893;SDS011;43392;50.078;13.704;2024-02-16T07:21:14;58.40;;;9.13;;
56893;SDS011;43392;50.078;13.704;2024-02-16T07:23:41;36.40;;;8.23;;
56893;SDS011;43392;50.078;13.704;2024-02-16T07:26:08;20.15;;;7.85;;
56893;SDS011;43392;50.078;13.704;2024-02-16T07:28:34;9.20;;;4.88;;
56893;SDS011;43392;50.078;13.704;2024-02-16T07:31:02;10.85;;;6.13;;
56893;SDS011;43392;50.078;13.704;2024-02-16T07:33:29;13.32;;;5.72;;
56893;SDS011;43392;50.078;13.704;2024-02-16T07:35:56;11.77;;;5.80;;
56893;SDS011;43392;50.078;13.704;2024-02-16T07:38:22;11.20;;;5.82;;
56893;SDS011;43392;50.078;13.704;2024-02-16T07:40:49;15.98;;;9.35;;
56893;SDS011;43392;50.078;13.704;2024-02-16T07:43:16;13.85;;;8.25;;
56893;SDS011;43392;50.078;13.704;2024-02-16T07:45:43;20.65;;;13.10;;
56893;SDS011;43392;50.078;13.704;2024-02-16T07:48:11;33.65;;;19.63;;
56893;SDS011;43392;50.078;13.704;2024-02-16T07:50:38;27.00;;;9.02;;
56893;SDS011;43392;50.078;13.704;2024-02-16T07:53:04;20.70;;;8.18;;
56893;SDS011;43392;50.078;13.704;2024-02-16T07:55:31;54.20;;;8.77;;
56893;SDS011;43392;50.078;13.704;2024-02-16T07:57:58;42.25;;;8.50;;
56893;SDS011;43392;50.078;13.704;2024-02-16T08:00:24;19.20;;;8.30;;
56893;SDS011;43392;50.078;13.704;2024-02-16T08:02:51;58.90;;;9.25;;
56893;SDS011;43392;50.078;13.704;2024-02-16T08:05:19;40.25;;;10.43;;
56893;SDS011;43392;50.078;13.704;2024-02-16T08:07:47;44.17;;;13.25;;
56893;SDS011;43392;50.078;13.704;2024-02-16T08:10:14;58.53;;;14.95;;
56893;SDS011;43392;50.078;13.704;2024-02-16T08:12:41;75.22;;;16.13;;
56893;SDS011;43392;50.078;13.704;2024-02-16T08:15:07;56.60;;;15.05;;
56893;SDS011;43392;50.078;13.704;2024-02-16T08:17:36;45.88;;;13.70;;
56893;SDS011;43392;50.078;13.704;2024-02-16T08:20:03;42.85;;;14.18;;
56893;SDS011;43392;50.078;13.704;2024-02-16T08:22:31;41.55;;;13.68;;
56893;SDS011;43392;50.078;13.704;2024-02-16T08:24:59;43.30;;;13.90;;
56893;SDS011;43392;50.078;13.704;2024-02-16T08:27:25;37.53;;;13.80;;
56893;SDS011;43392;50.078;13.704;2024-02-16T08:29:52;36.28;;;14.30;;
56893;SDS011;43392;50.078;13.704;2024-02-16T08:32:19;50.85;;;13.73;;
56893;SDS011;43392;50.078;13.704;2024-02-16T08:34:46;164.85;;;22.58;;
56893;SDS011;43392;50.078;13.704;2024-02-16T08:37:13;155.75;;;22.08;;
56893;SDS011;43392;50.078;13.704;2024-02-16T08:39:41;86.70;;;19.80;;
56893;SDS011;43392;50.078;13.704;2024-02-16T08:42:08;59.85;;;21.30;;
56893;SDS011;43392;50.078;13.704;2024-02-16T08:44:36;44.38;;;19.13;;
56893;SDS011;43392;50.078;13.704;2024-02-16T08:47:04;44.78;;;21.98;;
56893;SDS011;43392;50.078;13.704;2024-02-16T08:49:31;52.40;;;25.27;;
56893;SDS011;43392;50.078;13.704;2024-02-16T08:51:57;47.47;;;24.00;;
56893;SDS011;43392;50.078;13.704;2024-02-16T08:54:24;42.47;;;21.60;;
56893;SDS011;43392;50.078;13.704;2024-02-16T08:56:52;44.15;;;21.55;;
56893;SDS011;43392;50.078;13.704;2024-02-16T08:59:19;45.30;;;23.65;;
56893;SDS011;43392;50.078;13.704;2024-02-16T09:01:46;46.75;;;25.83;;
56893;SDS011;43392;50.078;13.704;2024-02-16T09:04:13;50.92;;;24.83;;
56893;SDS011;43392;50.078;13.704;2024-02-16T09:06:40;66.80;;;38.42;;
56893;SDS011;43392;50.078;13.704;2024-02-16T09:09:07;51.25;;;24.92;;
56893;SDS011;43392;50.078;13.704;2024-02-16T09:11:34;44.83;;;21.13;;
56893;SDS011;43392;50.078;13.704;2024-02-16T09:14:01;51.63;;;25.60;;
56893;SDS011;43392;50.078;13.704;2024-02-16T09:16:29;75.80;;;23.08;;
56893;SDS011;43392;50.078;13.704;2024-02-16T09:18:57;42.60;;;20.55;;
56893;SDS011;43392;50.078;13.704;2024-02-16T09:21:24;50.25;;;27.35;;
56893;SDS011;43392;50.078;13.704;2024-02-16T09:23:53;52.22;;;20.67;;
56893;SDS011;43392;50.078;13.704;2024-02-16T09:26:23;45.28;;;21.48;;
56893;SDS011;43392;50.078;13.704;2024-02-16T09:28:51;63.47;;;22.65;;
56893;SDS011;43392;50.078;13.704;2024-02-16T09:31:19;42.40;;;19.70;;
56893;SDS011;43392;50.078;13.704;2024-02-16T09:33:46;52.80;;;22.23;;
56893;SDS011;43392;50.078;13.704;2024-02-16T09:36:13;50.38;;;21.35;;
56893;SDS011;43392;50.078;13.704;2024-02-16T09:38:40;44.63;;;20.65;;
56893;SDS011;43392;50.078;13.704;2024-02-16T09:41:06;52.22;;;20.95;;
56893;SDS011;43392;50.078;13.704;2024-02-16T09:43:33;41.40;;;19.38;;
56893;SDS011;43392;50.078;13.704;2024-02-16T09:46:00;51.90;;;19.67;;
56893;SDS011;43392;50.078;13.704;2024-02-16T09:48:28;66.85;;;19.17;;
56893;SDS011;43392;50.078;13.704;2024-02-16T09:50:54;59.38;;;19.85;;
56893;SDS011;43392;50.078;13.704;2024-02-16T09:53:24;46.10;;;19.20;;
56893;SDS011;43392;50.078;13.704;2024-02-16T09:55:52;46.90;;;19.60;;
56893;SDS011;43392;50.078;13.704;2024-02-16T09:58:19;49.13;;;19.33;;
56893;SDS011;43392;50.078;13.704;2024-02-16T10:00:49;40.67;;;18.88;;
56893;SDS011;43392;50.078;13.704;2024-02-16T10:03:23;43.85;;;18.90;;
56893;SDS011;43392;50.078;13.704;2024-02-16T10:05:52;51.92;;;20.20;;
56893;SDS011;43392;50.078;13.704;2024-02-16T10:08:29;45.63;;;19.83;;
56893;SDS011;43392;50.078;13.704;2024-02-16T10:11:00;48.95;;;20.02;;
56893;SDS011;43392;50.078;13.704;2024-02-16T10:13:28;46.03;;;20.60;;
56893;SDS011;43392;50.078;13.704;2024-02-16T10:16:03;46.33;;;21.42;;
56893;SDS011;43392;50.078;13.704;2024-02-16T10:18:30;45.10;;;21.25;;
56893;SDS011;43392;50.078;13.704;2024-02-16T10:20:58;48.85;;;22.02;;
56893;SDS011;43392;50.078;13.704;2024-02-16T10:23:25;39.45;;;20.90;;
56893;SDS011;43392;50.078;13.704;2024-02-16T10:25:51;46.92;;;22.42;;
56893;SDS011;43392;50.078;13.704;2024-02-16T10:28:18;46.63;;;21.95;;
56893;SDS011;43392;50.078;13.704;2024-02-16T10:30:52;48.47;;;22.10;;
56893;SDS011;43392;50.078;13.704;2024-02-16T10:33:25;47.72;;;22.42;;
56893;SDS011;43392;50.078;13.704;2024-02-16T10:35:54;42.35;;;21.83;;
56893;SDS011;43392;50.078;13.704;2024-02-16T10:38:23;40.90;;;21.02;;
56893;SDS011;43392;50.078;13.704;2024-02-16T10:40:52;43.42;;;20.60;;
56893;SDS011;43392;50.078;13.704;2024-02-16T10:43:20;39.38;;;18.20;;
56893;SDS011;43392;50.078;13.704;2024-02-16T10:45:47;38.85;;;19.25;;
56893;SDS011;43392;50.078;13.704;2024-02-16T10:48:17;39.00;;;19.88;;
56893;SDS011;43392;50.078;13.704;2024-02-16T10:50:44;36.78;;;19.05;;
56893;SDS011;43392;50.078;13.704;2024-02-16T10:53:12;38.47;;;18.77;;
56893;SDS011;43392;50.078;13.704;2024-02-16T10:55:42;37.20;;;19.10;;
56893;SDS011;43392;50.078;13.704;2024-02-16T10:58:10;35.13;;;18.83;;
56893;SDS011;43392;50.078;13.704;2024-02-16T11:00:47;49.35;;;25.73;;
56893;SDS011;43392;50.078;13.704;2024-02-16T11:03:16;37.30;;;19.35;;
56893;SDS011;43392;50.078;13.704;2024-02-16T11:05:43;35.67;;;19.27;;
56893;SDS011;43392;50.078;13.704;2024-02-16T11:08:11;33.55;;;18.15;;
56893;SDS011;43392;50.078;13.704;2024-02-16T11:10:39;36.05;;;20.23;;
56893;SDS011;43392;50.078;13.704;2024-02-16T11:13:07;60.75;;;35.25;;
56893;SDS011;43392;50.078;13.704;2024-02-16T11:15:34;45.60;;;23.80;;
56893;SDS011;43392;50.078;13.704;2024-02-16T11:18:01;53.75;;;31.38;;
56893;SDS011;43392;50.078;13.704;2024-02-16T11:20:35;42.70;;;23.27;;
56893;SDS011;43392;50.078;13.704;2024-02-16T11:23:08;44.90;;;23.58;;
56893;SDS011;43392;50.078;13.704;2024-02-16T11:25:35;45.50;;;24.88;;
56893;SDS011;43392;50.078;13.704;2024-02-16T11:28:03;47.55;;;26.58;;
56893;SDS011;43392;50.078;13.704;2024-02-16T11:30:33;41.63;;;22.70;;
56893;SDS011;43392;50.078;13.704;2024-02-16T11:33:00;44.88;;;23.45;;
56893;SDS011;43392;50.078;13.704;2024-02-16T11:35:27;50.28;;;28.40;;
56893;SDS011;43392;50.078;13.704;2024-02-16T11:37:55;96.65;;;61.40;;
56893;SDS011;43392;50.078;13.704;2024-02-16T11:40:22;37.10;;;22.55;;
56893;SDS011;43392;50.078;13.704;2024-02-16T11:42:48;67.38;;;41.72;;
56893;SDS011;43392;50.078;13.704;2024-02-16T11:45:15;55.17;;;35.10;;
56893;SDS011;43392;50.078;13.704;2024-02-16T11:47:43;45.10;;;26.65;;
56893;SDS011;43392;50.078;13.704;2024-02-16T11:50:10;36.80;;;20.33;;
56893;SDS011;43392;50.078;13.704;2024-02-16T11:52:37;30.75;;;18.00;;
56893;SDS011;43392;50.078;13.704;2024-02-16T11:55:04;34.55;;;19.63;;
56893;SDS011;43392;50.078;13.704;2024-02-16T11:57:34;37.55;;;21.20;;
56893;SDS011;43392;50.078;13.704;2024-02-16T12:00:02;37.90;;;20.60;;
56893;SDS011;43392;50.078;13.704;2024-02-16T12:02:34;33.08;;;18.80;;
56893;SDS011;43392;50.078;13.704;2024-02-16T12:05:02;31.35;;;17.83;;
56893;SDS011;43392;50.078;13.704;2024-02-16T12:07:30;33.65;;;19.27;;
56893;SDS011;43392;50.078;13.704;2024-02-16T12:09:58;36.10;;;19.30;;
56893;SDS011;43392;50.078;13.704;2024-02-16T12:12:25;36.35;;;20.98;;
56893;SDS011;43392;50.078;13.704;2024-02-16T12:14:52;30.70;;;17.52;;
56893;SDS011;43392;50.078;13.704;2024-02-16T12:17:19;32.55;;;17.52;;
56893;SDS011;43392;50.078;13.704;2024-02-16T12:19:46;31.35;;;17.63;;
56893;SDS011;43392;50.078;13.704;2024-02-16T12:22:17;33.30;;;19.98;;
56893;SDS011;43392;50.078;13.704;2024-02-16T12:24:44;35.38;;;20.23;;
56893;SDS011;43392;50.078;13.704;2024-02-16T12:27:11;35.13;;;20.10;;
56893;SDS011;43392;50.078;13.704;2024-02-16T12:29:38;36.92;;;19.88;;
56893;SDS011;43392;50.078;13.704;2024-02-16T12:32:05;37.60;;;19.67;;
56893;SDS011;43392;50.078;13.704;2024-02-16T12:34:32;35.05;;;20.55;;
56893;SDS011;43392;50.078;13.704;2024-02-16T12:36:59;31.08;;;18.65;;
56893;SDS011;43392;50.078;13.704;2024-02-16T12:39:27;37.63;;;18.98;;
56893;SDS011;43392;50.078;13.704;2024-02-16T12:41:53;35.10;;;20.48;;
56893;SDS011;43392;50.078;13.704;2024-02-16T12:44:20;30.30;;;18.17;;
56893;SDS011;43392;50.078;13.704;2024-02-16T12:46:46;32.75;;;18.50;;
56893;SDS011;43392;50.078;13.704;2024-02-16T12:49:13;30.95;;;18.13;;
56893;SDS011;43392;50.078;13.704;2024-02-16T12:51:40;35.05;;;18.67;;
56893;SDS011;43392;50.078;13.704;2024-02-16T12:54:07;31.65;;;19.35;;
56893;SDS011;43392;50.078;13.704;2024-02-16T12:56:40;34.35;;;19.30;;
56893;SDS011;43392;50.078;13.704;2024-02-16T12:59:07;35.28;;;20.90;;
56893;SDS011;43392;50.078;13.704;2024-02-16T13:01:34;33.35;;;19.30;;
56893;SDS011;43392;50.078;13.704;2024-02-16T13:04:00;34.15;;;19.05;;
56893;SDS011;43392;50.078;13.704;2024-02-16T13:06:27;32.42;;;18.98;;
56893;SDS011;43392;50.078;13.704;2024-02-16T13:08:53;33.70;;;19.65;;
56893;SDS011;43392;50.078;13.704;2024-02-16T13:11:20;34.45;;;19.83;;
56893;SDS011;43392;50.078;13.704;2024-02-16T13:13:48;31.80;;;17.88;;
56893;SDS011;43392;50.078;13.704;2024-02-16T13:16:16;28.60;;;16.92;;
56893;SDS011;43392;50.078;13.704;2024-02-16T13:18:42;28.20;;;16.50;;
56893;SDS011;43392;50.078;13.704;2024-02-16T13:21:09;28.80;;;17.17;;
56893;SDS011;43392;50.078;13.704;2024-02-16T13:23:36;27.70;;;16.25;;
56893;SDS011;43392;50.078;13.704;2024-02-16T13:26:02;28.33;;;16.48;;
56893;SDS011;43392;50.078;13.704;2024-02-16T13:28:29;32.35;;;18.13;;
56893;SDS011;43392;50.078;13.704;2024-02-16T13:30:57;29.02;;;17.17;;
56893;SDS011;43392;50.078;13.704;2024-02-16T13:33:24;26.73;;;16.23;;
56893;SDS011;43392;50.078;13.704;2024-02-16T13:35:50;21.70;;;11.50;;
56893;SDS011;43392;50.078;13.704;2024-02-16T13:38:17;30.20;;;19.33;;
56893;SDS011;43392;50.078;13.704;2024-02-16T13:40:43;29.00;;;17.98;;
56893;SDS011;43392;50.078;13.704;2024-02-16T13:43:10;30.67;;;17.05;;
56893;SDS011;43392;50.078;13.704;2024-02-16T13:45:47;26.60;;;16.27;;
56893;SDS011;43392;50.078;13.704;2024-02-16T13:48:16;27.65;;;16.52;;
56893;SDS011;43392;50.078;13.704;2024-02-16T13:50:44;29.45;;;16.88;;
56893;SDS011;43392;50.078;13.704;2024-02-16T13:53:11;31.40;;;19.00;;
56893;SDS011;43392;50.078;13.704;2024-02-16T13:55:39;28.27;;;17.40;;
56893;SDS011;43392;50.078;13.704;2024-02-16T13:58:07;30.52;;;18.30;;
56893;SDS011;43392;50.078;13.704;2024-02-16T14:00:34;34.50;;;20.40;;
56893;SDS011;43392;50.078;13.704;2024-02-16T14:03:00;32.45;;;19.45;;
56893;SDS011;43392;50.078;13.704;2024-02-16T14:05:28;35.28;;;19.50;;
56893;SDS011;43392;50.078;13.704;2024-02-16T14:07:55;33.20;;;19.23;;